Time;durP1;ratioP1;P1;durP2;ratioP2;P2;SDS_P1;SDS_P2;PMS_P1;PMS_P2;Temp;Humidity;BMP_temperature;BMP_pressure;BME280_temperature;BME280_humidity;BME280_pressure;Samples;Min_cycle;Max_cycle;Signal;HPM_P1;HPM_P2
2021/04/21 00:02:22;;;;;;;;;;;256.40;2099.20;;;;;;5068962;28;19904;-70
2021/04/21 00:04:49;;;;;;;;;;;256.50;2073.60;;;;;;5057030;28;19909;-67
2021/04/21 00:07:15;;;;;;;;;;;256.50;2099.20;;;;;;5053811;28;20019;-70
2021/04/21 00:09:41;;;;;;;;;;;256.70;2048.00;;;;;;5054405;28;19943;-70
2021/04/21 00:12:07;;;;;;;;;;;256.80;2048.00;;;;;;5073519;28;19959;-70
2021/04/21 00:14:33;;;;;;;;;;;256.70;2073.60;;;;;;5073456;28;19919;-70
2021/04/21 00:17:00;;;;;;;;;;;256.70;2073.60;;;;;;5073419;28;19908;-68
2021/04/21 00:19:26;;;;;;;;;;;256.50;2099.20;;;;;;5055605;28;19959;-70
2021/04/21 00:21:53;;;;;;;;;;;256.40;2099.20;;;;;;5073357;28;19995;-71
2021/04/21 00:24:19;;;;;;;;;;;256.50;2073.60;;;;;;5073103;28;19927;-70
2021/04/21 00:26:46;;;;;;;;;;;256.50;2099.20;;;;;;5072988;28;19912;-71
2021/04/21 00:29:12;;;;;;;;;;;256.40;2124.80;;;;;;5072944;28;19916;-70
2021/04/21 00:31:39;;;;;;;;;;;256.40;2099.20;;;;;;5064170;28;20374;-68
2021/04/21 00:34:05;;;;;;;;;;;256.70;2073.60;;;;;;5072195;28;19999;-70
2021/04/21 00:36:33;;;;;;;;;;;256.60;2073.60;;;;;;5072703;28;19974;-70
2021/04/21 00:39:00;;;;;;;;;;;256.70;2073.60;;;;;;5072597;28;19904;-70
2021/04/21 00:41:44;;;;;;;;;;;256.70;2073.60;;;;;;5072840;28;19990;-71
2021/04/21 00:44:10;;;;;;;;;;;;;;;;;;5072508;28;20421;-68
2021/04/21 00:46:44;;;;;;;;;;;281.60;2022.40;;;;;;5072912;28;19965;-70
2021/04/21 00:49:17;;;;;;;;;;;281.60;2048.00;;;;;;5058995;28;19909;-69
2021/04/21 00:51:53;;;;;;;;;;;256.80;2073.60;;;;;;5046286;28;19926;-69
2021/04/21 00:54:30;;;;;;;;;;;281.70;2073.60;;;;;;5072199;28;19904;-68
2021/04/21 00:56:56;;;;;;;;;;;;;;;;;;5072383;28;20246;-70
2021/04/21 00:59:22;;;;;;;;;;;;;;;;;;5058668;28;19924;-69
2021/04/21 01:01:48;;;;;;;;;;;;;;;;;;5051729;28;19958;-69
2021/04/21 01:04:14;;;;;;;;;;;;;;;;;;5052360;28;20346;-69
2021/04/21 01:06:40;;;;;;;;;;;;;;;;;;5051950;28;19920;-69
2021/04/21 01:09:06;;;;;;;;;;;;;;;;;;5062211;28;20049;-70
2021/04/21 01:11:31;;;;;;;;;;;;;;;;;;5056403;28;19946;-69
2021/04/21 01:13:57;;;;;;;;;;;;;;;;;;5052453;28;19912;-64
2021/04/21 01:16:23;;;;;;;;;;;;;;;;;;5052324;28;19917;-68
2021/04/21 01:18:49;;;;;;;;;;;;;;;;;;5052024;28;19911;-69
2021/04/21 01:21:15;;;;;;;;;;;;;;;;;;5052224;28;19994;-69
2021/04/21 01:23:41;;;;;;;;;;;;;;;;;;5051866;28;19905;-70
2021/04/21 01:26:07;;;;;;;;;;;;;;;;;;5062184;28;19909;-69
2021/04/21 01:28:33;;;;;;;;;;;;;;;;;;5071748;28;20004;-68
2021/04/21 01:30:59;;;;;;;;;;;;;;;;;;5068733;28;20011;-70
2021/04/21 01:33:25;;;;;;;;;;;;;;;;;;5065920;28;20485;-69
2021/04/21 01:35:51;;;;;;;;;;;;;;;;;;5072356;28;20022;-68
2021/04/21 01:38:17;;;;;;;;;;;;;;;;;;5071918;28;20305;-68
2021/04/21 01:40:44;;;;;;;;;;;;;;;;;;5072270;28;19908;-70
2021/04/21 01:43:09;;;;;;;;;;;;;;;;;;5072042;28;19908;-69
2021/04/21 01:45:35;;;;;;;;;;;;;;;;;;5071791;28;19910;-70
2021/04/21 01:48:01;;;;;;;;;;;;;;;;;;5067284;28;19912;-70
2021/04/21 01:50:27;;;;;;;;;;;;;;;;;;5051976;28;19908;-70
2021/04/21 01:52:54;;;;;;;;;;;;;;;;;;5068528;28;19928;-68
2021/04/21 01:55:20;;;;;;;;;;;;;;;;;;5071675;28;20391;-69
2021/04/21 01:57:46;;;;;;;;;;;;;;;;;;5071722;28;19905;-70
2021/04/21 02:00:12;;;;;;;;;;;;;;;;;;5071615;28;19905;-69
2021/04/21 02:02:38;;;;;;;;;;;;;;;;;;5067930;28;19947;-67
2021/04/21 02:05:04;;;;;;;;;;;;;;;;;;5071481;28;19912;-63
2021/04/21 02:07:30;;;;;;;;;;;;;;;;;;5071829;28;19912;-70
2021/04/21 02:09:56;;;;;;;;;;;;;;;;;;5055175;28;20290;-69
2021/04/21 02:12:22;;;;;;;;;;;;;;;;;;5051940;28;19905;-70
2021/04/21 02:14:48;;;;;;;;;;;;;;;;;;5054994;28;19912;-69
2021/04/21 02:17:13;;;;;;;;;;;;;;;;;;5055525;28;19905;-68
2021/04/21 02:19:39;;;;;;;;;;;;;;;;;;5055409;28;19911;-70
2021/04/21 02:22:05;;;;;;;;;;;;;;;;;;5074193;28;19987;-69
2021/04/21 02:24:31;;;;;;;;;;;;;;;;;;5075378;28;20359;-68
2021/04/21 02:26:57;;;;;;;;;;;;;;;;;;5075571;28;20003;-69
2021/04/21 02:29:23;;;;;;;;;;;;;;;;;;5075166;28;19990;-68
2021/04/21 02:31:49;;;;;;;;;;;;;;;;;;5066489;28;19996;-69
2021/04/21 02:34:15;;;;;;;;;;;;;;;;;;5075056;28;20407;-70
2021/04/21 02:36:41;;;;;;;;;;;;;;;;;;5057189;28;20010;-70
2021/04/21 02:39:07;;;;;;;;;;;;;;;;;;5074941;28;20007;-69
2021/04/21 02:41:33;;;;;;;;;;;;;;;;;;5075561;28;20004;-70
2021/04/21 02:44:00;;;;;;;;;;;;;;;;;;5074970;28;20348;-70
2021/04/21 02:46:25;;;;;;;;;;;;;;;;;;5075036;28;19957;-70
2021/04/21 02:48:51;;;;;;;;;;;;;;;;;;5063624;28;19991;-69
2021/04/21 02:51:17;;;;;;;;;;;;;;;;;;5071976;28;19908;-70
2021/04/21 02:53:43;;;;;;;;;;;;;;;;;;5074968;28;20281;-70
2021/04/21 02:56:09;;;;;;;;;;;;;;;;;;5074596;28;19919;-69
2021/04/21 02:58:35;;;;;;;;;;;;;;;;;;5074806;28;19922;-69
2021/04/21 03:01:01;;;;;;;;;;;;;;;;;;5071644;28;19919;-70
2021/04/21 03:03:27;;;;;;;;;;;;;;;;;;5073944;28;19912;-70
2021/04/21 03:05:53;;;;;;;;;;;;;;;;;;5074844;28;20298;-70
2021/04/21 03:08:19;;;;;;;;;;;;;;;;;;5074642;28;19909;-70
2021/04/21 03:10:45;;;;;;;;;;;;;;;;;;5065697;28;19905;-70
2021/04/21 03:13:11;;;;;;;;;;;;;;;;;;5054265;28;19912;-70
2021/04/21 03:15:37;;;;;;;;;;;;;;;;;;5061762;28;19924;-70
2021/04/21 03:18:03;;;;;;;;;;;;;;;;;;5074391;28;19904;-67
2021/04/21 03:20:29;;;;;;;;;;;;;;;;;;5068592;28;19970;-70
2021/04/21 03:22:54;;;;;;;;;;;;;;;;;;5054647;28;19905;-70
2021/04/21 03:25:20;;;;;;;;;;;;;;;;;;5053739;28;20066;-69
2021/04/21 03:27:46;;;;;;;;;;;;;;;;;;5054438;28;20373;-70
2021/04/21 03:30:12;;;;;;;;;;;;;;;;;;5067979;28;19911;-69
2021/04/21 03:32:38;;;;;;;;;;;;;;;;;;5053816;28;19908;-68
2021/04/21 03:35:05;;;;;;;;;;;282.30;2150.40;;;;;;5054246;28;19916;-70
2021/04/21 03:37:50;;;;;;;;;;;282.10;2176.00;;;;;;5054053;28;20433;-70
2021/04/21 03:40:16;;;;;;;;;;;282.20;2176.00;;;;;;5068118;28;19993;-68
2021/04/21 03:42:42;;;;;;;;;;;282.50;2124.80;;;;;;5053973;28;19905;-69
2021/04/21 03:45:09;;;;;;;;;;;282.20;2176.00;;;;;;5053883;28;19950;-69
2021/04/21 03:47:34;;;;;;;;;;;282.20;2176.00;;;;;;5053550;28;19912;-70
2021/04/21 03:50:02;;;;;;;;;;;282.50;2150.40;;;;;;5060546;28;19905;-70
2021/04/21 03:52:28;;;;;;;;;;;307.20;2150.40;;;;;;5073567;28;19904;-70
2021/04/21 03:54:55;;;;;;;;;;;282.40;2150.40;;;;;;5073485;28;19923;-69
2021/04/21 03:57:21;;;;;;;;;;;307.30;2176.00;;;;;;5062565;28;19908;-69
2021/04/21 03:59:47;;;;;;;;;;;307.50;2176.00;;;;;;5067503;28;19909;-69
2021/04/21 04:02:13;;;;;;;;;;;307.60;2124.80;;;;;;5062821;28;19904;-69
2021/04/21 04:04:41;;;;;;;;;;;307.70;2124.80;;;;;;5073334;28;19908;-70
2021/04/21 04:07:09;;;;;;;;;;;307.80;2073.60;;;;;;5074123;28;20406;-70
2021/04/21 04:09:35;;;;;;;;;;;307.80;2073.60;;;;;;5073330;28;19904;-70
2021/04/21 04:12:04;;;;;;;;;;;307.80;2073.60;;;;;;5073535;28;19957;-70
2021/04/21 04:14:30;;;;;;;;;;;307.90;2073.60;;;;;;5073478;28;20375;-69
2021/04/21 04:16:58;;;;;;;;;;;307.80;2073.60;;;;;;5073719;28;19904;-70
2021/04/21 04:19:24;;;;;;;;;;;307.70;2099.20;;;;;;5073495;28;19908;-70
2021/04/21 04:22:03;;;;;;;;;;;307.70;2073.60;;;;;;5055388;28;19908;-68
2021/04/21 04:24:33;;;;;;;;;;;307.50;2150.40;;;;;;5073743;28;19908;-70
2021/04/21 04:27:00;;;;;;;;;;;307.70;2124.80;;;;;;5073441;28;20633;-70
2021/04/21 04:29:26;;;;;;;;;;;307.60;2150.40;;;;;;5073479;28;20362;-70
2021/04/21 04:31:52;;;;;;;;;;;307.60;2150.40;;;;;;5064875;28;19904;-69
2021/04/21 04:34:20;;;;;;;;;;;307.70;2124.80;;;;;;5072965;28;19914;-70
2021/04/21 04:36:45;;;;;;;;;;;307.60;2150.40;;;;;;5072510;28;19916;-70
2021/04/21 04:39:11;;;;;;;;;;;307.30;2252.80;;;;;;5072705;28;19912;-70
2021/04/21 04:41:37;;;;;;;;;;;282.40;2278.40;;;;;;5054879;28;19908;-69
2021/04/21 04:44:03;;;;;;;;;;;307.40;2252.80;;;;;;5072389;28;19916;-71
2021/04/21 04:46:31;;;;;;;;;;;307.20;2304.00;;;;;;5072597;28;19904;-70
2021/04/21 04:49:01;;;;;;;;;;;282.50;2278.40;;;;;;5060623;28;19916;-70
2021/04/21 04:51:28;;;;;;;;;;;307.40;2304.00;;;;;;5053157;28;19908;-70
2021/04/21 04:53:53;;;;;;;;;;;307.60;2278.40;;;;;;5072555;28;20359;-69
2021/04/21 04:56:20;;;;;;;;;;;307.40;2304.00;;;;;;5072249;28;19944;-71
2021/04/21 04:58:46;;;;;;;;;;;307.60;2278.40;;;;;;5072404;28;20329;-70
2021/04/21 05:01:12;;;;;;;;;;;307.50;2304.00;;;;;;5069365;28;19912;-70
2021/04/21 05:03:48;;;;;;;;;;;307.40;2304.00;;;;;;5072250;28;19904;-70
2021/04/21 05:06:16;;;;;;;;;;;307.30;2304.00;;;;;;5071949;28;19920;-68
2021/04/21 05:08:45;;;;;;;;;;;307.40;2304.00;;;;;;5072323;28;19946;-70
2021/04/21 05:11:15;;;;;;;;;;;307.70;2304.00;;;;;;5072065;28;19912;-67
2021/04/21 05:13:45;;;;;;;;;;;307.80;2304.00;;;;;;5072342;28;19904;-70
2021/04/21 05:16:12;;;;;;;;;;;308.00;2252.80;;;;;;5072286;28;19912;-71
2021/04/21 05:18:46;;;;;;;;;;;308.00;2227.20;;;;;;5071985;28;19990;-69
2021/04/21 05:21:11;;;;;;;;;;;307.80;2278.40;;;;;;5057884;28;20003;-69
2021/04/21 05:23:37;;;;;;;;;;;307.70;2278.40;;;;;;5052582;28;19995;-66
2021/04/21 05:26:32;;;;;;;;;;;307.60;2278.40;;;;;;5061589;28;20389;-68
2021/04/21 05:29:16;;;;;;;;;;;307.80;2252.80;;;;;;5050256;28;19915;-70
2021/04/21 05:31:54;;;;;;;;;;;308.00;2227.20;;;;;;5064442;28;19905;-68
2021/04/21 05:34:38;;;;;;;;;;;308.10;2278.40;;;;;;5047099;28;19908;-70
2021/04/21 05:37:04;;;;;;;;;;;332.90;2329.60;;;;;;5058238;28;19916;-63
2021/04/21 05:39:32;;;;;;;;;;;332.90;2329.60;;;;;;5072535;28;19912;-65
2021/04/21 05:42:06;;;;;;;;;;;333.00;2329.60;;;;;;5072259;28;19910;-68
2021/04/21 05:44:53;;;;;;;;;;;333.10;2329.60;;;;;;5071870;28;19912;-74
2021/04/21 05:47:37;;;;;;;;;;;333.20;2252.80;;;;;;5056883;28;19904;-72
2021/04/21 05:50:13;;;;;;;;;;;333.10;2176.00;;;;;;5050417;28;19908;-71
2021/04/21 05:52:50;;;;;;;;;;;333.20;2227.20;;;;;;5076419;28;19911;-68
2021/04/21 05:55:34;;;;;;;;;;;333.10;2227.20;;;;;;5076168;28;20345;-70
2021/04/21 05:58:12;;;;;;;;;;;333.00;2278.40;;;;;;5076191;28;19904;-71
2021/04/21 06:00:56;;;;;;;;;;;333.40;2278.40;;;;;;5076247;28;19911;-70
2021/04/21 06:03:23;;;;;;;;;;;333.40;2227.20;;;;;;5074352;28;20278;-69
2021/04/21 06:05:48;;;;;;;;;;;333.60;2201.60;;;;;;5075085;28;19970;-70
2021/04/21 06:08:14;;;;;;;;;;;333.70;2176.00;;;;;;5075522;28;19916;-71
2021/04/21 06:10:40;;;;;;;;;;;333.70;2176.00;;;;;;5075713;28;19912;-66
2021/04/21 06:13:06;;;;;;;;;;;358.40;2124.80;;;;;;5075524;28;19904;-68
2021/04/21 06:15:33;;;;;;;;;;;333.60;2073.60;;;;;;5075607;28;20008;-65
2021/04/21 06:18:00;;;;;;;;;;;333.70;2099.20;;;;;;5075661;28;19904;-70
2021/04/21 06:20:28;;;;;;;;;;;358.40;2124.80;;;;;;5061155;28;19908;-71
2021/04/21 06:23:13;;;;;;;;;;;358.60;2073.60;;;;;;5075482;28;19963;-65
2021/04/21 06:25:40;;;;;;;;;;;358.80;2150.40;;;;;;5047754;28;19904;-72
2021/04/21 06:28:07;;;;;;;;;;;358.80;2073.60;;;;;;5075372;28;19911;-71
2021/04/21 06:30:33;;;;;;;;;;;358.80;1971.20;;;;;;5075001;28;19948;-71
2021/04/21 06:32:59;;;;;;;;;;;358.60;2099.20;;;;;;5067092;28;19970;-70
2021/04/21 06:35:28;;;;;;;;;;;358.70;2099.20;;;;;;5074739;28;19920;-69
2021/04/21 06:37:53;;;;;;;;;;;358.90;2073.60;;;;;;5075024;28;19912;-70
2021/04/21 06:40:23;;;;;;;;;;;359.10;2124.80;;;;;;5074905;28;19954;-69
2021/04/21 06:42:49;;;;;;;;;;;359.20;2073.60;;;;;;5075048;28;19955;-68
2021/04/21 06:45:21;;;;;;;;;;;384.00;2048.00;;;;;;5075113;28;19939;-71
2021/04/21 06:47:47;;;;;;;;;;;384.20;1996.80;;;;;;5045333;28;19943;-69
2021/04/21 06:50:12;;;;;;;;;;;384.40;1996.80;;;;;;5063072;28;19904;-69
2021/04/21 06:52:39;;;;;;;;;;;384.40;1868.80;;;;;;5075073;28;19904;-69
2021/04/21 06:55:06;;;;;;;;;;;384.50;1843.20;;;;;;5075143;28;19909;-70
2021/04/21 06:57:32;;;;;;;;;;;384.50;1920.00;;;;;;5075414;28;20255;-69
2021/04/21 07:00:10;;;;;;;;;;;384.70;1868.80;;;;;;5074282;28;19915;-68
2021/04/21 07:02:40;;;;;;;;;;;384.80;1817.60;;;;;;5071944;28;19904;-68
2021/04/21 07:05:07;;;;;;;;;;;384.80;1817.60;;;;;;5074508;28;19915;-70
2021/04/21 07:07:34;;;;;;;;;;;384.80;1868.80;;;;;;5063677;28;20006;-70
2021/04/21 07:10:00;;;;;;;;;;;384.90;1792.00;;;;;;5054654;28;20359;-70
2021/04/21 07:12:26;;;;;;;;;;;384.90;1715.20;;;;;;5054720;28;19911;-70
2021/04/21 07:14:51;;;;;;;;;;;409.60;1792.00;;;;;;5054440;28;19909;-72
2021/04/21 07:17:17;;;;;;;;;;;409.80;1792.00;;;;;;5054628;28;19959;-72
2021/04/21 07:19:44;;;;;;;;;;;409.80;1766.40;;;;;;5054306;28;20422;-72
2021/04/21 07:22:14;;;;;;;;;;;410.00;1689.60;;;;;;5054371;28;20011;-72
2021/04/21 07:24:42;;;;;;;;;;;410.10;1638.40;;;;;;5042919;28;20288;-71
2021/04/21 07:27:09;;;;;;;;;;;410.30;1715.20;;;;;;5054513;28;19987;-71
2021/04/21 07:29:35;;;;;;;;;;;410.50;1715.20;;;;;;5054447;28;19908;-75
2021/04/21 07:32:15;;;;;;;;;;;435.20;1715.20;;;;;;5054053;28;20465;-73
2021/04/21 07:34:41;;;;;;;;;;;435.30;1612.80;;;;;;5036027;28;19909;-73
2021/04/21 07:37:06;;;;;;;;;;;435.30;1484.80;;;;;;5054090;28;19920;-74
2021/04/21 07:39:37;;;;;;;;;;;410.50;1536.00;;;;;;5054377;28;20003;-66
2021/04/21 07:42:23;;;;;;;;;;;410.50;1484.80;;;;;;5053999;28;19905;-73
2021/04/21 07:44:53;;;;;;;;;;;410.50;1536.00;;;;;;5053608;28;19904;-74
2021/04/21 07:47:19;;;;;;;;;;;435.20;1510.40;;;;;;5053993;28;19905;-74
2021/04/21 07:49:47;;;;;;;;;;;435.30;1587.20;;;;;;5058634;28;19923;-75
2021/04/21 07:52:29;;;;;;;;;;;435.40;1612.80;;;;;;5073857;28;19911;-74
2021/04/21 07:55:24;;;;;;;;;;;435.80;1536.00;;;;;;5073748;28;19940;-63
2021/04/21 07:58:00;;;;;;;;;;;436.10;1484.80;;;;;;4971947;28;19910;-75
2021/04/21 08:00:26;;;;;;;;;;;460.80;1433.60;;;;;;4961969;28;19932;-76
2021/04/21 08:02:52;;;;;;;;;;;460.80;1408.00;;;;;;4953727;28;20308;-75
2021/04/21 08:05:18;;;;;;;;;;;460.90;1382.40;;;;;;4972267;28;19914;-74
2021/04/21 08:07:53;;;;;;;;;;;461.00;1382.40;;;;;;4972413;28;19933;-72
2021/04/21 08:10:26;;;;;;;;;;;461.30;1433.60;;;;;;4954962;28;19906;-70
2021/04/21 08:12:52;;;;;;;;;;;461.70;1356.80;;;;;;4972373;28;20369;-70
2021/04/21 08:15:18;;;;;;;;;;;486.40;1408.00;;;;;;4972328;28;20292;-73
2021/04/21 08:17:53;;;;;;;;;;;487.10;1305.60;;;;;;4972420;28;20296;-73
2021/04/21 08:20:23;;;;;;;;;;;487.00;1280.00;;;;;;4971667;28;19934;-74
2021/04/21 08:22:59;;;;;;;;;;;487.20;1305.60;;;;;;4972256;28;20001;-71
2021/04/21 08:25:25;;;;;;;;;;;486.90;1280.00;;;;;;4972019;28;20407;-71
2021/04/21 08:27:50;;;;;;;;;;;461.70;1356.80;;;;;;4972228;28;20000;-70
2021/04/21 08:30:17;;;;;;;;;;;461.00;1382.40;;;;;;4971965;28;20099;-68
2021/04/21 08:32:42;;;;;;;;;;;435.90;1382.40;;;;;;4965048;28;19997;-71
2021/04/21 08:35:09;;;;;;;;;;;435.40;1484.80;;;;;;5043256;28;20014;-67
2021/04/21 08:37:35;;;;;;;;;;;410.40;1587.20;;;;;;5035045;28;19909;-70
2021/04/21 08:40:00;;;;;;;;;;;410.30;1664.00;;;;;;5053021;28;19904;-67
2021/04/21 08:42:26;;;;;;;;;;;409.80;1689.60;;;;;;5052654;28;19905;-70
2021/04/21 08:44:52;;;;;;;;;;;384.90;1612.80;;;;;;5052787;28;19944;-70
2021/04/21 08:47:17;;;;;;;;;;;384.90;1638.40;;;;;;5052610;28;20349;-69
2021/04/21 08:49:43;;;;;;;;;;;384.90;1664.00;;;;;;5034111;28;19905;-67
2021/04/21 08:52:10;;;;;;;;;;;409.60;1664.00;;;;;;5042847;28;19909;-68
2021/04/21 08:54:36;;;;;;;;;;;409.70;1638.40;;;;;;5052816;28;19912;-69
2021/04/21 08:57:02;;;;;;;;;;;410.00;1587.20;;;;;;5052672;28;19908;-68
2021/04/21 08:59:28;;;;;;;;;;;409.80;1536.00;;;;;;5052383;28;19929;-68
2021/04/21 09:01:54;;;;;;;;;;;409.60;1561.60;;;;;;5050124;28;19948;-66
2021/04/21 09:04:20;;;;;;;;;;;409.60;1612.80;;;;;;5052146;28;19908;-71
2021/04/21 09:06:46;;;;;;;;;;;409.60;1484.80;;;;;;5070758;28;19920;-68
2021/04/21 09:09:13;;;;;;;;;;;409.60;1510.40;;;;;;5072302;28;19909;-68
2021/04/21 09:11:39;;;;;;;;;;;409.80;1484.80;;;;;;5072124;28;20050;-68
2021/04/21 09:14:05;;;;;;;;;;;409.80;1484.80;;;;;;5072209;28;19950;-65
2021/04/21 09:16:30;;;;;;;;;;;410.10;1484.80;;;;;;5071800;28;20378;-68
2021/04/21 09:18:56;;;;;;;;;;;410.20;1536.00;;;;;;5071931;28;20347;-69
2021/04/21 09:21:33;;;;;;;;;;;410.00;1561.60;;;;;;5071821;28;19904;-72
2021/04/21 09:23:59;;;;;;;;;;;410.30;1561.60;;;;;;5044392;28;20033;-68
2021/04/21 09:26:26;;;;;;;;;;;410.50;1612.80;;;;;;5072072;28;19966;-73
2021/04/21 09:28:54;;;;;;;;;;;410.50;1561.60;;;;;;5071878;28;19904;-73
2021/04/21 09:31:22;;;;;;;;;;;410.50;1587.20;;;;;;5068147;28;19908;-70
2021/04/21 09:34:05;;;;;;;;;;;410.50;1612.80;;;;;;5068854;28;19905;-71
2021/04/21 09:36:32;;;;;;;;;;;410.30;1638.40;;;;;;5071666;28;19924;-70
2021/04/21 09:39:08;;;;;;;;;;;410.10;1638.40;;;;;;5071800;28;19958;-70
2021/04/21 09:41:33;;;;;;;;;;;435.20;1638.40;;;;;;5053926;28;19904;-70
2021/04/21 09:44:11;;;;;;;;;;;410.50;1638.40;;;;;;5071539;28;19911;-70
2021/04/21 09:46:40;;;;;;;;;;;435.30;1638.40;;;;;;5071972;28;19908;-70
2021/04/21 09:49:06;;;;;;;;;;;;;;;;;;5058481;28;19966;-67
2021/04/21 09:51:32;;;;;;;;;;;436.10;1510.40;;;;;;5071350;28;19908;-73
2021/04/21 09:53:58;;;;;;;;;;;;;;;;;;5072395;28;20296;-73
2021/04/21 09:56:24;;;;;;;;;;;460.90;1459.20;;;;;;5071842;28;19912;-72
2021/04/21 09:58:57;;;;;;;;;;;461.00;1459.20;;;;;;5072556;28;19912;-76
2021/04/21 10:01:33;;;;;;;;;;;461.40;1408.00;;;;;;5069911;28;19904;-76
2021/04/21 10:04:04;;;;;;;;;;;486.60;1382.40;;;;;;5072187;28;20273;-71
2021/04/21 10:06:30;;;;;;;;;;;487.30;1305.60;;;;;;5071541;28;19930;-67
2021/04/21 10:08:56;;;;;;;;;;;512.50;1177.60;;;;;;5072372;28;19904;-75
2021/04/21 10:11:21;;;;;;;;;;;512.40;1177.60;;;;;;5071769;28;19911;-72
2021/04/21 10:13:48;;;;;;;;;;;564.00;1049.60;;;;;;5071990;28;19908;-70
2021/04/21 10:16:15;;;;;;;;;;;589.30;998.40;;;;;;5072015;28;20286;-71
2021/04/21 10:18:42;;;;;;;;;;;589.40;1024.00;;;;;;5071665;28;20403;-68
2021/04/21 10:21:08;;;;;;;;;;;589.60;998.40;;;;;;5071850;28;19908;-71
2021/04/21 10:23:34;;;;;;;;;;;589.60;972.80;;;;;;5071664;28;20108;-70
2021/04/21 10:26:06;;;;;;;;;;;615.30;921.60;;;;;;5071893;28;19936;-70
2021/04/21 10:28:39;;;;;;;;;;;614.60;947.20;;;;;;5071807;28;19962;-69
2021/04/21 10:31:23;;;;;;;;;;;665.70;819.20;;;;;;5070475;28;19911;-71
2021/04/21 10:33:51;;;;;;;;;;;691.30;768.00;;;;;;5069388;28;20018;-71
2021/04/21 10:36:16;;;;;;;;;;;691.30;793.60;;;;;;5075409;28;20374;-71
2021/04/21 10:38:42;;;;;;;;;;;716.90;716.80;;;;;;5075179;28;19911;-72
2021/04/21 10:41:27;;;;;;;;;;;691.40;793.60;;;;;;5075454;28;20174;-71
2021/04/21 10:43:53;;;;;;;;;;;;;;;;;;5075565;28;19905;-73
2021/04/21 10:46:19;;;;;;;;;;;;;;;;;;5075453;28;19973;-72
2021/04/21 10:48:45;;;;;;;;;;;;;;;;;;5064894;28;20087;-74
2021/04/21 10:51:11;;;;;;;;;;;;;;;;;;5071438;28;19995;-73
2021/04/21 10:53:37;;;;;;;;;;;;;;;;;;5075243;28;19912;-74
2021/04/21 10:56:03;;;;;;;;;;;;;;;;;;5075118;28;19919;-73
2021/04/21 10:58:29;;;;;;;;;;;;;;;;;;5075166;28;19905;-73
2021/04/21 11:00:54;;;;;;;;;;;;;;;;;;5074651;28;19909;-71
2021/04/21 11:03:25;;;;;;;;;;;;;;;;;;5072242;28;20270;-69
2021/04/21 11:05:52;;;;;;;;;;;;;;;;;;5071114;28;19916;-70
2021/04/21 11:08:18;;;;;;;;;;;;;;;;;;5069611;28;19916;-69
2021/04/21 11:10:45;;;;;;;;;;;768.10;588.80;;;;;;5072702;28;19904;-70
2021/04/21 11:13:10;;;;;;;;;;;;;;;;;;5071161;28;19916;-69
2021/04/21 11:15:36;;;;;;;;;;;;;;;;;;5054724;28;20002;-72
2021/04/21 11:18:02;;;;;;;;;;;;;;;;;;5055183;28;19908;-70
2021/04/21 11:20:28;;;;;;;;;;;;;;;;;;5068372;28;20342;-70
2021/04/21 11:22:54;;;;;;;;;;;;;;;;;;5054761;28;20235;-68
2021/04/21 11:25:28;;;;;;;;;;;716.90;691.20;;;;;;5031553;28;19905;-67
2021/04/21 11:27:55;;;;;;;;;;;;;;;;;;5054497;28;20294;-68
2021/04/21 11:30:21;;;;;;;;;;;;;;;;;;5054110;28;20379;-65
2021/04/21 11:32:47;;;;;;;;;;;;;;;;;;5054186;28;19975;-61
2021/04/21 11:35:13;;;;;;;;;;;;;;;;;;5054114;28;19913;-65
2021/04/21 11:37:45;;;;;;;;;;;666.50;691.20;;;;;;5054134;28;20070;-69
2021/04/21 11:40:24;;;;;;;;;;;691.50;691.20;;;;;;5054727;28;19956;-68
2021/04/21 11:42:50;;;;;;;;;;;;;;;;;;5054360;28;20119;-68
2021/04/21 11:45:23;;;;;;;;;;;665.90;742.40;;;;;;5053828;28;20492;-69
2021/04/21 11:48:13;;;;;;;;;;;665.80;716.80;;;;;;5054106;28;20401;-69
2021/04/21 11:50:39;;;;;;;;;;;;;;;;;;5066024;28;19905;-70
2021/04/21 11:53:25;;;;;;;;;;;640.60;742.40;;;;;;5073992;28;20311;-69
2021/04/21 11:56:02;;;;;;;;;;;640.50;742.40;;;;;;5073812;28;19920;-70
2021/04/21 11:58:32;;;;;;;;;;;640.50;742.40;;;;;;5067766;28;19954;-70
2021/04/21 12:00:59;;;;;;;;;;;640.80;742.40;;;;;;5066574;28;19968;-68
2021/04/21 12:03:26;;;;;;;;;;;640.60;742.40;;;;;;5073091;28;19904;-68
2021/04/21 12:05:54;;;;;;;;;;;640.60;742.40;;;;;;5073392;28;20366;-70
2021/04/21 12:08:21;;;;;;;;;;;640.80;716.80;;;;;;5073454;28;19908;-70
2021/04/21 12:10:47;;;;;;;;;;;640.50;691.20;;;;;;5074030;28;19904;-62
2021/04/21 12:13:13;;;;;;;;;;;;;;;;;;5070369;28;20373;-66
2021/04/21 12:15:38;;;;;;;;;;;640.20;691.20;;;;;;5050053;28;19966;-69
2021/04/21 12:18:05;;;;;;;;;;;640.00;691.20;;;;;;5054157;28;20272;-69
2021/04/21 12:20:31;;;;;;;;;;;640.00;665.60;;;;;;5053588;28;20343;-69
2021/04/21 12:22:57;;;;;;;;;;;640.20;665.60;;;;;;5052896;28;19944;-68
2021/04/21 12:25:23;;;;;;;;;;;640.60;640.00;;;;;;5053607;28;19995;-63
2021/04/21 12:27:53;;;;;;;;;;;640.50;640.00;;;;;;5053302;28;20301;-70
2021/04/21 12:30:20;;;;;;;;;;;;;;;;;;5053420;28;20606;-70
2021/04/21 12:32:46;;;;;;;;;;;640.50;640.00;;;;;;5034487;28;19905;-67
2021/04/21 12:35:12;;;;;;;;;;;640.40;614.40;;;;;;5052930;28;20270;-68
2021/04/21 12:37:37;;;;;;;;;;;640.20;614.40;;;;;;5053164;28;19935;-70
2021/04/21 12:40:03;;;;;;;;;;;;;;;;;;5053106;28;20389;-70
2021/04/21 12:42:29;;;;;;;;;;;640.60;640.00;;;;;;5053110;28;19905;-70
2021/04/21 12:44:54;;;;;;;;;;;640.40;640.00;;;;;;5053310;28;19911;-69
2021/04/21 12:47:29;;;;;;;;;;;640.10;691.20;;;;;;5052814;28;19943;-69
2021/04/21 12:50:05;;;;;;;;;;;640.10;665.60;;;;;;5058924;28;19904;-69
2021/04/21 12:52:30;;;;;;;;;;;640.10;691.20;;;;;;5072595;28;19909;-70
2021/04/21 12:54:56;;;;;;;;;;;615.30;691.20;;;;;;5055791;28;20421;-69
2021/04/21 12:57:22;;;;;;;;;;;;;;;;;;5052181;28;19908;-69
2021/04/21 12:59:48;;;;;;;;;;;;;;;;;;5052636;28;19915;-70
2021/04/21 13:02:16;;;;;;;;;;;615.10;716.80;;;;;;5052236;28;19912;-70
2021/04/21 13:04:42;;;;;;;;;;;615.10;716.80;;;;;;5052020;28;19963;-69
2021/04/21 13:07:11;;;;;;;;;;;615.20;742.40;;;;;;5052720;28;19935;-70
2021/04/21 13:09:37;;;;;;;;;;;615.20;742.40;;;;;;5052543;28;19911;-66
2021/04/21 13:12:05;;;;;;;;;;;615.10;716.80;;;;;;5052351;28;19952;-63
2021/04/21 13:14:50;;;;;;;;;;;615.10;742.40;;;;;;5052008;28;19999;-64
2021/04/21 13:17:16;;;;;;;;;;;615.20;691.20;;;;;;5041895;28;19923;-63
2021/04/21 13:19:52;;;;;;;;;;;615.00;691.20;;;;;;5053852;28;19908;-63
2021/04/21 13:22:23;;;;;;;;;;;614.90;716.80;;;;;;5071536;28;19908;-63
2021/04/21 13:24:49;;;;;;;;;;;;;;;;;;5069211;28;20243;-62
2021/04/21 13:27:15;;;;;;;;;;;;;;;;;;5055477;28;19916;-66
2021/04/21 13:29:40;;;;;;;;;;;589.60;768.00;;;;;;5068071;28;19908;-67
2021/04/21 13:32:13;;;;;;;;;;;589.40;793.60;;;;;;5068613;28;19909;-68
2021/04/21 13:34:39;;;;;;;;;;;;;;;;;;5061934;28;19908;-67
2021/04/21 13:37:05;;;;;;;;;;;;;;;;;;5051766;28;20054;-68
2021/04/21 13:39:30;;;;;;;;;;;589.10;793.60;;;;;;5052467;28;20333;-72
2021/04/21 13:41:56;;;;;;;;;;;;;;;;;;5051994;28;19909;-69
2021/04/21 13:44:22;;;;;;;;;;;;;;;;;;5051928;28;19904;-65
2021/04/21 13:46:48;;;;;;;;;;;;;;;;;;5052178;28;19991;-69
2021/04/21 13:49:15;;;;;;;;;;;;;;;;;;5052008;28;20003;-64
2021/04/21 13:51:41;;;;;;;;;;;;;;;;;;5072130;28;19992;-67
2021/04/21 13:54:07;;;;;;;;;;;;;;;;;;5071864;28;19943;-69
2021/04/21 13:56:32;;;;;;;;;;;563.70;896.00;;;;;;5071796;28;19952;-69
2021/04/21 13:58:58;;;;;;;;;;;;;;;;;;5072159;28;19962;-65
2021/04/21 14:01:24;;;;;;;;;;;538.10;921.60;;;;;;5070890;28;19904;-66
2021/04/21 14:03:49;;;;;;;;;;;538.00;921.60;;;;;;5071919;28;20416;-67
2021/04/21 14:06:15;;;;;;;;;;;;;;;;;;5071718;28;19924;-66
2021/04/21 14:08:41;;;;;;;;;;;;;;;;;;5072041;28;19994;-69
2021/04/21 14:11:06;;;;;;;;;;;512.70;947.20;;;;;;5075847;28;19912;-68
2021/04/21 14:13:32;;;;;;;;;;;512.60;1100.80;;;;;;5075829;28;19908;-65
2021/04/21 14:15:58;;;;;;;;;;;512.60;947.20;;;;;;5075852;28;19957;-65
2021/04/21 14:18:25;;;;;;;;;;;512.50;972.80;;;;;;5075616;28;19904;-68
2021/04/21 14:20:50;;;;;;;;;;;512.50;947.20;;;;;;5075680;28;19904;-68
2021/04/21 14:23:16;;;;;;;;;;;512.40;947.20;;;;;;5075451;28;19912;-69
2021/04/21 14:25:42;;;;;;;;;;;512.60;947.20;;;;;;5075960;28;19905;-67
2021/04/21 14:28:07;;;;;;;;;;;512.50;947.20;;;;;;5075758;28;20385;-65
2021/04/21 14:30:33;;;;;;;;;;;512.60;947.20;;;;;;5075652;28;19908;-68
2021/04/21 14:32:59;;;;;;;;;;;;;;;;;;5069752;28;19905;-68
2021/04/21 14:35:25;;;;;;;;;;;;;;;;;;5075214;28;20380;-66
2021/04/21 14:37:51;;;;;;;;;;;538.00;896.00;;;;;;5075489;28;19909;-68
2021/04/21 14:40:17;;;;;;;;;;;538.20;870.40;;;;;;5057034;28;20433;-64